Terminal Aerodrome Forecast
Issued by NWS Paducah, KY

Home | Current Version | Previous Version | Text Only | Print | Product List | Glossary On
Versions: 1 2 3 4 5 6 7 8 9 10 11 12 13 14
443
FTUS43 KPAH 030208 AAA
TAFEVV
TAF AMD
KEVV 030208Z 0302/0324 19010G18KT P6SM SCT020 BKN080
     FM030600 22007KT P6SM SKC
     FM031800 25014G22KT P6SM SKC=

USA.gov is the U.S. government's official web portal to all federal, state and local government web resources and services.